Terminal Aerodrome Forecast
Issued by NWS

Home | Current Version | Previous Version | Text Only | Print | Product List | Glossary On
Versions: 1 2 3 4 5 6 7 8 9 10 11 12 13 14 15 16 17 18
000
FTUS41 KILN 250200 AAA
TAFLUK
TAF AMD
KLUK 250256Z 2503/2524 13007KT P6SM BKN130 OVC250
     FM250800 14007KT 5SM -SHRA OVC060
     FM251100 19007KT P6SM VCSH OVC028
     FM251300 22010KT 3SM -SHRA VCTS BKN015 OVC025CB
     FM251700 31017G26KT P6SM BKN015 OVC040
     FM252100 30016G26KT P6SM SCT040=

USA.gov is the U.S. government's official web portal to all federal, state and local government web resources and services.